sensor_id;sensor_type;location;lat;lon;timestamp;pressure;altitude;pressure_sealevel;temperature;humidity
40612;BME280;26317;44.894;20.286;2022-11-20T00:00:17;99962.34;;;8.99;100.00
40612;BME280;26317;44.894;20.286;2022-11-20T00:02:48;99975.94;;;9.12;100.00
40612;BME280;26317;44.894;20.286;2022-11-20T00:05:18;99982.66;;;9.10;100.00
40612;BME280;26317;44.894;20.286;2022-11-20T00:07:47;99994.19;;;9.05;100.00
40612;BME280;26317;44.894;20.286;2022-11-20T00:10:19;100008.06;;;9.02;100.00
40612;BME280;26317;44.894;20.286;2022-11-20T00:12:49;100012.09;;;9.05;100.00
40612;BME280;26317;44.894;20.286;2022-11-20T00:15:18;100001.09;;;9.06;100.00
40612;BME280;26317;44.894;20.286;2022-11-20T00:17:47;99983.97;;;9.07;100.00
40612;BME280;26317;44.894;20.286;2022-11-20T00:20:16;99963.97;;;8.95;100.00
40612;BME280;26317;44.894;20.286;2022-11-20T00:22:46;99958.91;;;8.93;100.00
40612;BME280;26317;44.894;20.286;2022-11-20T00:25:19;100011.03;;;9.01;100.00
40612;BME280;26317;44.894;20.286;2022-11-20T00:27:48;100030.03;;;9.04;100.00
40612;BME280;26317;44.894;20.286;2022-11-20T00:30:21;100027.09;;;8.91;100.00
40612;BME280;26317;44.894;20.286;2022-11-20T00:32:50;100070.69;;;8.96;100.00
40612;BME280;26317;44.894;20.286;2022-11-20T00:35:19;100073.13;;;8.93;100.00
40612;BME280;26317;44.894;20.286;2022-11-20T00:37:48;100056.00;;;8.89;100.00
40612;BME280;26317;44.894;20.286;2022-11-20T00:40:20;100007.09;;;8.78;100.00
40612;BME280;26317;44.894;20.286;2022-11-20T00:42:50;99997.38;;;9.02;100.00
40612;BME280;26317;44.894;20.286;2022-11-20T00:45:19;99988.75;;;9.15;100.00
40612;BME280;26317;44.894;20.286;2022-11-20T00:47:47;99984.78;;;9.08;100.00
40612;BME280;26317;44.894;20.286;2022-11-20T00:50:17;99932.81;;;9.24;100.00
40612;BME280;26317;44.894;20.286;2022-11-20T00:52:47;99844.84;;;9.12;100.00
40612;BME280;26317;44.894;20.286;2022-11-20T00:55:16;99810.59;;;9.14;100.00
40612;BME280;26317;44.894;20.286;2022-11-20T00:57:47;99755.34;;;9.00;100.00
40612;BME280;26317;44.894;20.286;2022-11-20T01:00:17;99817.81;;;8.75;100.00
40612;BME280;26317;44.894;20.286;2022-11-20T01:02:46;99829.75;;;8.34;100.00
40612;BME280;26317;44.894;20.286;2022-11-20T01:05:15;99756.34;;;8.06;100.00
40612;BME280;26317;44.894;20.286;2022-11-20T01:07:44;99803.63;;;8.10;100.00
40612;BME280;26317;44.894;20.286;2022-11-20T01:10:14;99862.91;;;8.12;100.00
40612;BME280;26317;44.894;20.286;2022-11-20T01:12:43;99866.41;;;8.13;100.00
40612;BME280;26317;44.894;20.286;2022-11-20T01:15:36;99861.56;;;8.15;100.00
40612;BME280;26317;44.894;20.286;2022-11-20T01:18:05;99908.56;;;8.26;100.00
40612;BME280;26317;44.894;20.286;2022-11-20T01:20:35;99906.19;;;8.35;100.00
40612;BME280;26317;44.894;20.286;2022-11-20T01:23:04;99901.03;;;8.48;100.00
40612;BME280;26317;44.894;20.286;2022-11-20T01:25:34;99891.66;;;8.56;100.00
40612;BME280;26317;44.894;20.286;2022-11-20T01:28:03;99872.94;;;8.61;100.00
40612;BME280;26317;44.894;20.286;2022-11-20T01:30:32;99857.47;;;8.53;100.00
40612;BME280;26317;44.894;20.286;2022-11-20T01:33:10;99841.44;;;8.48;100.00
40612;BME280;26317;44.894;20.286;2022-11-20T01:35:39;99801.44;;;8.22;100.00
40612;BME280;26317;44.894;20.286;2022-11-20T01:38:08;99822.25;;;8.36;100.00
40612;BME280;26317;44.894;20.286;2022-11-20T01:40:37;99810.53;;;8.31;100.00
40612;BME280;26317;44.894;20.286;2022-11-20T01:43:16;99834.28;;;8.38;100.00
40612;BME280;26317;44.894;20.286;2022-11-20T01:45:58;99831.38;;;8.29;100.00
40612;BME280;26317;44.894;20.286;2022-11-20T01:48:35;99853.50;;;8.45;100.00
40612;BME280;26317;44.894;20.286;2022-11-20T01:51:07;99820.94;;;8.28;100.00
40612;BME280;26317;44.894;20.286;2022-11-20T01:53:40;99849.75;;;8.51;100.00
40612;BME280;26317;44.894;20.286;2022-11-20T01:56:10;99815.88;;;8.31;100.00
40612;BME280;26317;44.894;20.286;2022-11-20T01:58:44;99836.66;;;8.45;100.00
40612;BME280;26317;44.894;20.286;2022-11-20T02:01:14;99852.69;;;8.50;100.00
40612;BME280;26317;44.894;20.286;2022-11-20T02:03:47;99834.03;;;8.24;100.00
40612;BME280;26317;44.894;20.286;2022-11-20T02:06:20;99851.38;;;8.42;100.00
40612;BME280;26317;44.894;20.286;2022-11-20T02:08:52;99811.03;;;8.28;100.00
40612;BME280;26317;44.894;20.286;2022-11-20T02:11:21;99833.47;;;8.43;100.00
40612;BME280;26317;44.894;20.286;2022-11-20T02:13:50;99854.28;;;8.51;100.00
40612;BME280;26317;44.894;20.286;2022-11-20T02:16:21;99854.56;;;8.49;100.00
40612;BME280;26317;44.894;20.286;2022-11-20T02:18:55;99835.00;;;8.59;100.00
40612;BME280;26317;44.894;20.286;2022-11-20T02:21:30;99819.19;;;8.67;100.00
40612;BME280;26317;44.894;20.286;2022-11-20T02:24:14;99828.72;;;8.84;100.00
40612;BME280;26317;44.894;20.286;2022-11-20T02:26:48;99845.84;;;8.77;100.00
40612;BME280;26317;44.894;20.286;2022-11-20T02:29:24;99836.56;;;8.65;100.00
40612;BME280;26317;44.894;20.286;2022-11-20T02:31:56;99856.88;;;8.71;100.00
40612;BME280;26317;44.894;20.286;2022-11-20T02:34:27;99829.72;;;8.44;100.00
40612;BME280;26317;44.894;20.286;2022-11-20T02:36:56;99851.28;;;8.67;100.00
40612;BME280;26317;44.894;20.286;2022-11-20T02:39:28;99843.00;;;8.64;100.00
40612;BME280;26317;44.894;20.286;2022-11-20T02:41:57;99850.50;;;8.57;100.00
40612;BME280;26317;44.894;20.286;2022-11-20T02:44:28;99855.84;;;8.62;100.00
40612;BME280;26317;44.894;20.286;2022-11-20T02:46:58;99834.00;;;8.45;100.00
40612;BME280;26317;44.894;20.286;2022-11-20T02:49:27;99852.09;;;8.58;100.00
40612;BME280;26317;44.894;20.286;2022-11-20T02:51:57;99848.38;;;8.59;100.00
40612;BME280;26317;44.894;20.286;2022-11-20T02:54:29;99839.81;;;8.52;100.00
40612;BME280;26317;44.894;20.286;2022-11-20T02:56:58;99854.25;;;8.56;100.00
40612;BME280;26317;44.894;20.286;2022-11-20T02:59:27;99851.06;;;8.54;100.00
40612;BME280;26317;44.894;20.286;2022-11-20T03:01:56;99854.22;;;8.61;100.00
40612;BME280;26317;44.894;20.286;2022-11-20T03:04:24;99827.00;;;8.54;100.00
40612;BME280;26317;44.894;20.286;2022-11-20T03:06:53;99853.72;;;8.59;100.00
40612;BME280;26317;44.894;20.286;2022-11-20T03:09:22;99853.19;;;8.52;100.00
40612;BME280;26317;44.894;20.286;2022-11-20T03:11:54;99864.41;;;8.59;100.00
40612;BME280;26317;44.894;20.286;2022-11-20T03:14:24;99854.22;;;8.61;100.00
40612;BME280;26317;44.894;20.286;2022-11-20T03:16:53;99857.94;;;8.65;100.00
40612;BME280;26317;44.894;20.286;2022-11-20T03:19:22;99853.13;;;8.72;100.00
40612;BME280;26317;44.894;20.286;2022-11-20T03:21:51;99860.59;;;8.75;100.00
40612;BME280;26317;44.894;20.286;2022-11-20T03:24:20;99869.66;;;8.79;100.00
40612;BME280;26317;44.894;20.286;2022-11-20T03:26:49;99888.06;;;8.86;100.00
40612;BME280;26317;44.894;20.286;2022-11-20T03:29:20;99895.28;;;8.85;100.00
40612;BME280;26317;44.894;20.286;2022-11-20T03:31:49;99889.47;;;8.73;100.00
40612;BME280;26317;44.894;20.286;2022-11-20T03:34:19;99916.72;;;8.80;100.00
40612;BME280;26317;44.894;20.286;2022-11-20T03:36:48;99908.44;;;8.76;100.00
40612;BME280;26317;44.894;20.286;2022-11-20T03:39:18;99899.09;;;8.69;100.00
40612;BME280;26317;44.894;20.286;2022-11-20T03:41:48;99872.19;;;8.45;100.00
40612;BME280;26317;44.894;20.286;2022-11-20T03:44:16;99870.34;;;8.41;100.00
40612;BME280;26317;44.894;20.286;2022-11-20T03:46:50;99893.25;;;8.62;100.00
40612;BME280;26317;44.894;20.286;2022-11-20T03:49:20;99885.25;;;8.62;100.00
40612;BME280;26317;44.894;20.286;2022-11-20T03:51:50;99867.91;;;8.54;100.00
40612;BME280;26317;44.894;20.286;2022-11-20T03:54:18;99861.72;;;8.59;100.00
40612;BME280;26317;44.894;20.286;2022-11-20T03:56:47;99852.69;;;8.45;100.00
40612;BME280;26317;44.894;20.286;2022-11-20T03:59:16;99852.09;;;8.58;100.00
40612;BME280;26317;44.894;20.286;2022-11-20T04:01:48;99826.47;;;8.52;100.00
40612;BME280;26317;44.894;20.286;2022-11-20T04:04:17;99848.38;;;8.59;100.00
40612;BME280;26317;44.894;20.286;2022-11-20T04:06:46;99838.81;;;8.27;100.00
40612;BME280;26317;44.894;20.286;2022-11-20T04:09:15;99848.75;;;8.12;100.00
40612;BME280;26317;44.894;20.286;2022-11-20T04:11:44;99849.00;;;8.15;100.00
40612;BME280;26317;44.894;20.286;2022-11-20T04:14:15;99822.63;;;7.99;100.00
40612;BME280;26317;44.894;20.286;2022-11-20T04:16:44;99836.47;;;8.11;100.00
40612;BME280;26317;44.894;20.286;2022-11-20T04:19:16;99834.09;;;7.99;100.00
40612;BME280;26317;44.894;20.286;2022-11-20T04:21:45;99833.59;;;7.82;100.00
40612;BME280;26317;44.894;20.286;2022-11-20T04:24:14;99839.44;;;7.94;100.00
40612;BME280;26317;44.894;20.286;2022-11-20T04:26:42;99824.28;;;7.84;100.00
40612;BME280;26317;44.894;20.286;2022-11-20T04:29:12;99850.13;;;7.99;100.00
40612;BME280;26317;44.894;20.286;2022-11-20T04:31:41;99862.91;;;8.07;100.00
40612;BME280;26317;44.894;20.286;2022-11-20T04:34:11;99858.69;;;7.96;100.00
40612;BME280;26317;44.894;20.286;2022-11-20T04:36:43;99869.06;;;8.03;100.00
40612;BME280;26317;44.894;20.286;2022-11-20T04:39:14;99878.69;;;8.09;100.00
40612;BME280;26317;44.894;20.286;2022-11-20T04:41:43;99882.16;;;8.09;100.00
40612;BME280;26317;44.894;20.286;2022-11-20T04:44:12;99872.81;;;8.02;100.00
40612;BME280;26317;44.894;20.286;2022-11-20T04:46:42;99886.69;;;8.09;100.00
40612;BME280;26317;44.894;20.286;2022-11-20T04:49:11;99856.56;;;7.93;100.00
40612;BME280;26317;44.894;20.286;2022-11-20T04:51:43;99850.13;;;7.94;100.00
40612;BME280;26317;44.894;20.286;2022-11-20T04:54:12;99853.09;;;7.88;100.00
40612;BME280;26317;44.894;20.286;2022-11-20T04:56:41;99884.28;;;8.07;100.00
40612;BME280;26317;44.894;20.286;2022-11-20T04:59:11;99884.03;;;8.09;100.00
40612;BME280;26317;44.894;20.286;2022-11-20T05:01:41;99865.34;;;7.94;100.00
40612;BME280;26317;44.894;20.286;2022-11-20T05:04:10;99903.78;;;8.03;100.00
40612;BME280;26317;44.894;20.286;2022-11-20T05:06:43;99911.03;;;7.97;100.00
40612;BME280;26317;44.894;20.286;2022-11-20T05:09:12;99908.34;;;7.92;100.00
40612;BME280;26317;44.894;20.286;2022-11-20T05:11:41;99905.69;;;7.87;100.00
40612;BME280;26317;44.894;20.286;2022-11-20T05:14:09;99926.50;;;7.95;100.00
40612;BME280;26317;44.894;20.286;2022-11-20T05:16:38;99935.56;;;8.04;100.00
40612;BME280;26317;44.894;20.286;2022-11-20T05:19:08;99928.91;;;7.97;100.00
40612;BME280;26317;44.894;20.286;2022-11-20T05:21:37;99927.56;;;8.04;100.00
40612;BME280;26317;44.894;20.286;2022-11-20T05:24:09;99929.69;;;8.12;100.00
40612;BME280;26317;44.894;20.286;2022-11-20T05:26:38;99933.44;;;8.11;100.00
40612;BME280;26317;44.894;20.286;2022-11-20T05:29:10;99925.97;;;8.08;100.00
40612;BME280;26317;44.894;20.286;2022-11-20T05:31:40;99922.78;;;8.01;100.00
40612;BME280;26317;44.894;20.286;2022-11-20T05:34:09;99918.47;;;8.10;100.00
40612;BME280;26317;44.894;20.286;2022-11-20T05:36:38;99928.34;;;8.25;100.00
40612;BME280;26317;44.894;20.286;2022-11-20T05:39:10;99932.34;;;8.38;100.00
40612;BME280;26317;44.894;20.286;2022-11-20T05:41:41;99945.16;;;8.41;100.00
40612;BME280;26317;44.894;20.286;2022-11-20T05:44:11;99939.31;;;8.34;100.00
40612;BME280;26317;44.894;20.286;2022-11-20T05:46:40;99926.22;;;8.22;100.00
40612;BME280;26317;44.894;20.286;2022-11-20T05:49:09;99927.81;;;8.18;100.00
40612;BME280;26317;44.894;20.286;2022-11-20T05:51:38;99937.41;;;8.19;100.00
40612;BME280;26317;44.894;20.286;2022-11-20T05:54:10;99935.56;;;8.14;100.00
40612;BME280;26317;44.894;20.286;2022-11-20T05:56:39;99906.75;;;7.91;100.00
40612;BME280;26317;44.894;20.286;2022-11-20T05:59:08;99926.50;;;8.05;100.00
40612;BME280;26317;44.894;20.286;2022-11-20T06:01:37;99936.38;;;8.10;100.00
40612;BME280;26317;44.894;20.286;2022-11-20T06:04:06;99876.03;;;7.68;100.00
40612;BME280;26317;44.894;20.286;2022-11-20T06:06:35;99924.34;;;8.02;100.00
40612;BME280;26317;44.894;20.286;2022-11-20T06:09:04;99923.53;;;8.02;100.00
40612;BME280;26317;44.894;20.286;2022-11-20T06:11:36;99933.97;;;8.08;100.00
40612;BME280;26317;44.894;20.286;2022-11-20T06:14:05;99945.75;;;7.97;100.00
40612;BME280;26317;44.894;20.286;2022-11-20T06:16:34;99906.75;;;7.71;100.00
40612;BME280;26317;44.894;20.286;2022-11-20T06:19:03;99948.13;;;7.89;100.00
40612;BME280;26317;44.894;20.286;2022-11-20T06:21:32;99956.41;;;7.87;100.00
40612;BME280;26317;44.894;20.286;2022-11-20T06:24:01;99942.25;;;7.66;100.00
40612;BME280;26317;44.894;20.286;2022-11-20T06:26:30;99978.81;;;7.81;100.00
40612;BME280;26317;44.894;20.286;2022-11-20T06:29:02;99986.81;;;7.81;100.00
40612;BME280;26317;44.894;20.286;2022-11-20T06:31:32;99982.81;;;7.63;100.00
40612;BME280;26317;44.894;20.286;2022-11-20T06:34:03;99999.09;;;7.77;100.00
40612;BME280;26317;44.894;20.286;2022-11-20T06:36:32;100003.63;;;7.66;100.00
40612;BME280;26317;44.894;20.286;2022-11-20T06:39:01;99993.78;;;7.72;100.00
40612;BME280;26317;44.894;20.286;2022-11-20T06:41:31;99982.31;;;7.76;100.00
40612;BME280;26317;44.894;20.286;2022-11-20T06:44:03;100001.22;;;7.65;100.00
40612;BME280;26317;44.894;20.286;2022-11-20T06:46:32;100003.88;;;7.65;100.00
40612;BME280;26317;44.894;20.286;2022-11-20T06:49:01;99981.72;;;7.54;100.00
40612;BME280;26317;44.894;20.286;2022-11-20T06:51:31;99987.06;;;7.64;100.00
40612;BME280;26317;44.894;20.286;2022-11-20T06:54:01;100004.97;;;7.59;100.00
40612;BME280;26317;44.894;20.286;2022-11-20T06:56:30;100005.97;;;7.48;100.00
40612;BME280;26317;44.894;20.286;2022-11-20T06:59:06;100023.84;;;7.37;100.00
40612;BME280;26317;44.894;20.286;2022-11-20T07:01:36;100029.19;;;7.42;100.00
40612;BME280;26317;44.894;20.286;2022-11-20T07:04:05;100031.34;;;7.45;100.00
40612;BME280;26317;44.894;20.286;2022-11-20T07:06:34;100036.94;;;7.49;100.00
40612;BME280;26317;44.894;20.286;2022-11-20T07:09:02;100027.84;;;7.34;100.00
40612;BME280;26317;44.894;20.286;2022-11-20T07:11:32;100051.59;;;7.41;100.00
40612;BME280;26317;44.894;20.286;2022-11-20T07:14:00;100067.84;;;7.34;100.00
40612;BME280;26317;44.894;20.286;2022-11-20T07:16:32;100064.56;;;7.22;100.00
40612;BME280;26317;44.894;20.286;2022-11-20T07:19:02;100064.94;;;7.41;100.00
40612;BME280;26317;44.894;20.286;2022-11-20T07:21:31;100069.50;;;7.46;100.00
40612;BME280;26317;44.894;20.286;2022-11-20T07:24:00;100071.09;;;7.47;100.00
40612;BME280;26317;44.894;20.286;2022-11-20T07:26:29;100084.44;;;7.52;100.00
40612;BME280;26317;44.894;20.286;2022-11-20T07:28:58;100079.09;;;7.42;100.00
40612;BME280;26317;44.894;20.286;2022-11-20T07:31:27;100082.78;;;7.30;100.00
40612;BME280;26317;44.894;20.286;2022-11-20T07:34:01;100060.00;;;7.13;100.00
40612;BME280;26317;44.894;20.286;2022-11-20T07:36:30;100082.16;;;7.18;100.00
40612;BME280;26317;44.894;20.286;2022-11-20T07:38:59;100074.44;;;7.17;100.00
40612;BME280;26317;44.894;20.286;2022-11-20T07:41:28;100078.44;;;7.19;100.00
40612;BME280;26317;44.894;20.286;2022-11-20T07:43:57;100047.06;;;6.89;100.00
40612;BME280;26317;44.894;20.286;2022-11-20T07:46:26;100071.16;;;7.00;100.00
40612;BME280;26317;44.894;20.286;2022-11-20T07:48:58;100082.06;;;6.98;100.00
40612;BME280;26317;44.894;20.286;2022-11-20T07:51:26;100101.81;;;7.02;100.00
40612;BME280;26317;44.894;20.286;2022-11-20T07:53:56;100104.72;;;6.96;100.00
40612;BME280;26317;44.894;20.286;2022-11-20T07:56:24;100103.94;;;7.00;100.00
40612;BME280;26317;44.894;20.286;2022-11-20T07:58:54;100097.00;;;6.99;100.00
40612;BME280;26317;44.894;20.286;2022-11-20T08:01:23;100111.75;;;7.12;100.00
40612;BME280;26317;44.894;20.286;2022-11-20T08:03:52;100131.72;;;7.09;100.00
40612;BME280;26317;44.894;20.286;2022-11-20T08:06:24;100121.03;;;7.04;100.00
40612;BME280;26317;44.894;20.286;2022-11-20T08:08:53;100148.25;;;7.11;100.00
40612;BME280;26317;44.894;20.286;2022-11-20T08:11:22;100152.53;;;7.12;100.00
40612;BME280;26317;44.894;20.286;2022-11-20T08:14:03;100165.66;;;7.19;100.00
40612;BME280;26317;44.894;20.286;2022-11-20T08:16:48;100169.41;;;7.23;100.00
40612;BME280;26317;44.894;20.286;2022-11-20T08:19:18;100173.47;;;7.30;100.00
40612;BME280;26317;44.894;20.286;2022-11-20T08:21:50;100163.38;;;7.37;100.00
40612;BME280;26317;44.894;20.286;2022-11-20T08:24:19;100167.84;;;7.32;100.00
40612;BME280;26317;44.894;20.286;2022-11-20T08:26:48;100175.38;;;7.40;100.00
40612;BME280;26317;44.894;20.286;2022-11-20T08:29:17;100182.06;;;7.43;100.00
40612;BME280;26317;44.894;20.286;2022-11-20T08:31:48;100177.72;;;7.31;100.00
40612;BME280;26317;44.894;20.286;2022-11-20T08:34:17;100160.66;;;7.32;100.00
40612;BME280;26317;44.894;20.286;2022-11-20T08:36:51;100166.00;;;7.32;100.00
40612;BME280;26317;44.894;20.286;2022-11-20T08:39:20;100144.53;;;7.12;100.00
40612;BME280;26317;44.894;20.286;2022-11-20T08:41:50;100167.09;;;7.36;100.00
40612;BME280;26317;44.894;20.286;2022-11-20T08:44:19;100166.56;;;7.39;100.00
40612;BME280;26317;44.894;20.286;2022-11-20T08:46:48;100149.53;;;7.46;100.00
40612;BME280;26317;44.894;20.286;2022-11-20T08:49:17;100152.72;;;7.48;100.00
40612;BME280;26317;44.894;20.286;2022-11-20T08:51:47;100157.47;;;7.35;100.00
40612;BME280;26317;44.894;20.286;2022-11-20T08:54:22;100151.00;;;7.26;100.00
40612;BME280;26317;44.894;20.286;2022-11-20T08:56:50;100135.50;;;7.13;100.00
40612;BME280;26317;44.894;20.286;2022-11-20T08:59:19;100145.91;;;7.20;100.00
40612;BME280;26317;44.894;20.286;2022-11-20T09:01:48;100127.69;;;7.07;100.00
40612;BME280;26317;44.894;20.286;2022-11-20T09:04:17;100155.41;;;7.06;100.00
40612;BME280;26317;44.894;20.286;2022-11-20T09:06:46;100159.66;;;7.02;100.00
40612;BME280;26317;44.894;20.286;2022-11-20T09:09:16;100166.56;;;6.92;100.00
40612;BME280;26317;44.894;20.286;2022-11-20T09:11:50;100162.31;;;7.02;100.00
40612;BME280;26317;44.894;20.286;2022-11-20T09:14:19;100167.28;;;6.83;100.00
40612;BME280;26317;44.894;20.286;2022-11-20T09:16:50;100156.84;;;6.81;100.00
40612;BME280;26317;44.894;20.286;2022-11-20T09:19:19;100167.47;;;6.76;100.00
40612;BME280;26317;44.894;20.286;2022-11-20T09:21:49;100146.53;;;6.58;100.00
40612;BME280;26317;44.894;20.286;2022-11-20T09:24:18;100169.88;;;6.78;100.00
40612;BME280;26317;44.894;20.286;2022-11-20T09:26:50;100180.06;;;6.86;100.00
40612;BME280;26317;44.894;20.286;2022-11-20T09:29:20;100182.50;;;6.87;100.00
40612;BME280;26317;44.894;20.286;2022-11-20T09:31:49;100174.34;;;6.72;100.00
40612;BME280;26317;44.894;20.286;2022-11-20T09:34:19;100179.53;;;6.84;100.00
40612;BME280;26317;44.894;20.286;2022-11-20T09:36:48;100160.59;;;6.85;100.00
40612;BME280;26317;44.894;20.286;2022-11-20T09:39:17;100151.19;;;6.73;100.00
40612;BME280;26317;44.894;20.286;2022-11-20T09:41:57;100160.84;;;6.79;100.00
40612;BME280;26317;44.894;20.286;2022-11-20T09:44:40;100174.31;;;6.99;100.00
40612;BME280;26317;44.894;20.286;2022-11-20T09:47:24;100183.84;;;6.90;100.00
40612;BME280;26317;44.894;20.286;2022-11-20T09:50:10;100197.94;;;6.54;100.00
40612;BME280;26317;44.894;20.286;2022-11-20T09:52:59;100169.81;;;6.68;100.00
40612;BME280;26317;44.894;20.286;2022-11-20T09:55:34;100167.78;;;6.80;100.00
40612;BME280;26317;44.894;20.286;2022-11-20T09:58:14;100170.47;;;6.85;100.00
40612;BME280;26317;44.894;20.286;2022-11-20T10:00:45;100140.41;;;6.58;100.00
40612;BME280;26317;44.894;20.286;2022-11-20T10:03:21;100174.75;;;6.86;100.00
40612;BME280;26317;44.894;20.286;2022-11-20T10:05:55;100180.66;;;6.93;100.00
40612;BME280;26317;44.894;20.286;2022-11-20T10:08:27;100186.63;;;7.05;100.00
40612;BME280;26317;44.894;20.286;2022-11-20T10:11:05;100184.50;;;7.07;100.00
40612;BME280;26317;44.894;20.286;2022-11-20T10:13:49;100174.84;;;6.96;100.00
40612;BME280;26317;44.894;20.286;2022-11-20T10:16:28;100193.41;;;7.18;100.00
40612;BME280;26317;44.894;20.286;2022-11-20T10:19:09;100186.97;;;7.19;100.00
40612;BME280;26317;44.894;20.286;2022-11-20T10:21:57;100178.22;;;7.23;100.00
40612;BME280;26317;44.894;20.286;2022-11-20T10:24:42;100173.97;;;7.27;100.00
40612;BME280;26317;44.894;20.286;2022-11-20T10:27:32;100190.94;;;7.11;100.00
40612;BME280;26317;44.894;20.286;2022-11-20T10:30:12;100183.50;;;7.13;100.00
40612;BME280;26317;44.894;20.286;2022-11-20T10:32:43;100204.34;;;7.26;100.00
40612;BME280;26317;44.894;20.286;2022-11-20T10:35:22;100194.81;;;7.30;100.00
40612;BME280;26317;44.894;20.286;2022-11-20T10:37:56;100187.03;;;7.24;100.00
40612;BME280;26317;44.894;20.286;2022-11-20T10:40:32;100188.91;;;7.28;100.00
40612;BME280;26317;44.894;20.286;2022-11-20T10:43:08;100153.78;;;7.00;100.00
40612;BME280;26317;44.894;20.286;2022-11-20T10:45:58;100181.84;;;7.07;100.00
40612;BME280;26317;44.894;20.286;2022-11-20T10:48:28;100194.66;;;7.10;100.00
40612;BME280;26317;44.894;20.286;2022-11-20T10:51:10;100200.03;;;7.15;100.00
40612;BME280;26317;44.894;20.286;2022-11-20T10:53:48;100206.22;;;6.89;100.00
40612;BME280;26317;44.894;20.286;2022-11-20T10:56:22;100215.00;;;6.84;100.00
40612;BME280;26317;44.894;20.286;2022-11-20T10:59:03;100223.25;;;6.83;100.00
40612;BME280;26317;44.894;20.286;2022-11-20T11:01:39;100220.06;;;6.86;100.00
40612;BME280;26317;44.894;20.286;2022-11-20T11:04:23;100221.22;;;6.68;100.00
40612;BME280;26317;44.894;20.286;2022-11-20T11:07:01;100230.53;;;6.66;100.00
40612;BME280;26317;44.894;20.286;2022-11-20T11:09:35;100220.75;;;6.71;100.00
40612;BME280;26317;44.894;20.286;2022-11-20T11:12:08;100222.91;;;6.74;100.00
40612;BME280;26317;44.894;20.286;2022-11-20T11:14:47;100186.75;;;6.57;100.00
40612;BME280;26317;44.894;20.286;2022-11-20T11:17:26;100218.28;;;6.65;100.00
40612;BME280;26317;44.894;20.286;2022-11-20T11:20:00;100229.03;;;6.75;100.00
40612;BME280;26317;44.894;20.286;2022-11-20T11:22:31;100226.06;;;6.71;100.00
40612;BME280;26317;44.894;20.286;2022-11-20T11:25:01;100224.09;;;6.88;100.00
40612;BME280;26317;44.894;20.286;2022-11-20T11:27:32;100224.88;;;6.89;100.00
40612;BME280;26317;44.894;20.286;2022-11-20T11:30:10;100215.25;;;6.83;100.00
40612;BME280;26317;44.894;20.286;2022-11-20T11:32:44;100213.09;;;6.80;100.00
40612;BME280;26317;44.894;20.286;2022-11-20T11:35:23;100220.00;;;6.76;100.00
40612;BME280;26317;44.894;20.286;2022-11-20T11:37:54;100211.19;;;6.75;100.00
40612;BME280;26317;44.894;20.286;2022-11-20T11:40:31;100152.84;;;6.20;100.00
40612;BME280;26317;44.894;20.286;2022-11-20T11:43:04;100159.06;;;6.31;100.00
40612;BME280;26317;44.894;20.286;2022-11-20T11:45:55;100197.97;;;6.59;100.00
40612;BME280;26317;44.894;20.286;2022-11-20T11:48:24;100224.22;;;6.72;100.00
40612;BME280;26317;44.894;20.286;2022-11-20T11:50:53;100227.41;;;6.74;100.00
40612;BME280;26317;44.894;20.286;2022-11-20T11:53:23;100225.03;;;6.77;100.00
40612;BME280;26317;44.894;20.286;2022-11-20T11:55:58;100221.22;;;6.68;100.00
40612;BME280;26317;44.894;20.286;2022-11-20T11:58:43;100215.66;;;6.70;100.00
40612;BME280;26317;44.894;20.286;2022-11-20T12:01:24;100220.59;;;6.56;100.00
40612;BME280;26317;44.894;20.286;2022-11-20T12:04:04;100226.19;;;6.55;100.00
40612;BME280;26317;44.894;20.286;2022-11-20T12:06:36;100220.34;;;6.58;100.00
40612;BME280;26317;44.894;20.286;2022-11-20T12:09:09;100214.38;;;6.45;100.00
40612;BME280;26317;44.894;20.286;2022-11-20T12:11:43;100216.81;;;6.25;100.00
40612;BME280;26317;44.894;20.286;2022-11-20T12:14:18;100195.59;;;6.09;100.00
40612;BME280;26317;44.894;20.286;2022-11-20T12:16:52;100234.34;;;6.21;100.00
40612;BME280;26317;44.894;20.286;2022-11-20T12:19:30;100251.22;;;6.32;100.00
40612;BME280;26317;44.894;20.286;2022-11-20T12:22:05;100245.66;;;6.33;100.00
40612;BME280;26317;44.894;20.286;2022-11-20T12:24:44;100241.97;;;6.34;100.00
40612;BME280;26317;44.894;20.286;2022-11-20T12:27:39;100244.13;;;6.37;100.00
40612;BME280;26317;44.894;20.286;2022-11-20T12:30:14;100252.63;;;6.34;100.00
40612;BME280;26317;44.894;20.286;2022-11-20T12:32:57;100253.53;;;6.23;100.00
40612;BME280;26317;44.894;20.286;2022-11-20T12:35:50;100259.91;;;6.22;100.00
40612;BME280;26317;44.894;20.286;2022-11-20T12:38:41;100222.69;;;6.06;100.00
40612;BME280;26317;44.894;20.286;2022-11-20T12:41:22;100251.81;;;6.12;100.00
40612;BME280;26317;44.894;20.286;2022-11-20T12:44:13;100250.31;;;6.21;100.00
40612;BME280;26317;44.894;20.286;2022-11-20T12:47:08;100219.81;;;6.07;100.00
40612;BME280;26317;44.894;20.286;2022-11-20T12:49:47;100236.94;;;6.16;100.00
40612;BME280;26317;44.894;20.286;2022-11-20T12:52:32;100261.88;;;6.32;100.00
40612;BME280;26317;44.894;20.286;2022-11-20T12:55:20;100259.66;;;6.24;100.00
40612;BME280;26317;44.894;20.286;2022-11-20T12:57:57;100259.38;;;6.20;100.00
40612;BME280;26317;44.894;20.286;2022-11-20T13:00:26;100262.09;;;6.25;100.00
40612;BME280;26317;44.894;20.286;2022-11-20T13:05:55;100264.75;;;6.25;100.00
40612;BME280;26317;44.894;20.286;2022-11-20T13:08:32;100263.00;;;6.36;100.00
40612;BME280;26317;44.894;20.286;2022-11-20T13:11:09;100252.50;;;6.24;100.00
40612;BME280;26317;44.894;20.286;2022-11-20T13:13:48;100278.97;;;6.36;100.00